createdAt,value
2022-12-11T00:00:32.277Z,-5.222222222222172
2022-12-11T00:01:32.331Z,-5.222222222222172
2022-12-11T00:02:32.419Z,-5.111111111111086
2022-12-11T00:03:32.278Z,-5.111111111111086
2022-12-11T00:04:32.280Z,-5.111111111111086
2022-12-11T00:05:32.275Z,-5.111111111111086
2022-12-11T00:06:32.622Z,-5.111111111111086
2022-12-11T00:07:32.257Z,-5.111111111111086
2022-12-11T00:08:32.286Z,-5.111111111111086
2022-12-11T00:09:32.266Z,-5.111111111111086
2022-12-11T00:10:36.224Z,-5.111111111111086
2022-12-11T00:11:32.270Z,-5.111111111111086
2022-12-11T00:12:32.267Z,-5.111111111111086
2022-12-11T00:13:32.265Z,-5.111111111111086
2022-12-11T00:14:32.288Z,-5.111111111111086
2022-12-11T00:15:32.273Z,-4.999999999999943
2022-12-11T00:16:32.374Z,-4.999999999999943
2022-12-11T00:17:32.266Z,-4.999999999999943
2022-12-11T00:18:32.244Z,-4.999999999999943
2022-12-11T00:19:32.270Z,-4.999999999999943
2022-12-11T00:20:32.250Z,-4.999999999999943
2022-12-11T00:21:32.247Z,-4.999999999999943
2022-12-11T00:22:32.279Z,-4.999999999999943
2022-12-11T00:23:32.545Z,-4.999999999999943
2022-12-11T00:24:32.291Z,-4.999999999999943
2022-12-11T00:25:32.249Z,-4.888888888888857
2022-12-11T00:26:32.251Z,-4.888888888888857
2022-12-11T00:27:32.272Z,-4.888888888888857
2022-12-11T00:28:32.264Z,-4.888888888888857
2022-12-11T00:29:32.244Z,-4.888888888888857
2022-12-11T00:30:32.266Z,-4.888888888888857
2022-12-11T00:31:32.295Z,-4.888888888888857
2022-12-11T00:32:37.370Z,-4.888888888888857
2022-12-11T00:33:32.301Z,-4.7777777777777715
2022-12-11T00:34:32.255Z,-4.7777777777777715
2022-12-11T00:35:32.264Z,-4.7777777777777715
2022-12-11T00:36:32.276Z,-4.7777777777777715
2022-12-11T00:37:32.373Z,-4.7777777777777715
2022-12-11T00:38:32.256Z,-4.7777777777777715
2022-12-11T00:39:32.278Z,-4.7777777777777715
2022-12-11T00:40:32.268Z,-4.7777777777777715
2022-12-11T00:41:32.220Z,-4.7777777777777715
2022-12-11T00:42:32.677Z,-4.7777777777777715
2022-12-11T00:43:32.293Z,-4.7777777777777715
2022-12-11T00:44:32.335Z,-4.722222222222172
2022-12-11T00:45:32.313Z,-4.7777777777777715
2022-12-11T00:46:32.248Z,-4.7777777777777715
2022-12-11T00:47:32.408Z,-4.7777777777777715
2022-12-11T00:48:32.275Z,-4.7777777777777715
2022-12-11T00:49:32.401Z,-4.722222222222172
2022-12-11T00:50:32.264Z,-4.722222222222172
2022-12-11T00:51:32.293Z,-4.722222222222172
2022-12-11T00:52:32.282Z,-4.722222222222172
2022-12-11T00:53:32.264Z,-4.722222222222172
2022-12-11T00:54:32.308Z,-4.722222222222172
2022-12-11T00:55:32.260Z,-4.722222222222172
2022-12-11T00:56:32.245Z,-4.722222222222172
2022-12-11T00:57:32.236Z,-4.722222222222172
2022-12-11T00:58:32.330Z,-4.722222222222172
2022-12-11T00:59:32.267Z,-4.722222222222172
2022-12-11T01:00:32.332Z,-4.722222222222172
2022-12-11T01:01:32.378Z,-4.722222222222172
2022-12-11T01:02:32.388Z,-4.611111111111086
2022-12-11T01:03:32.264Z,-4.722222222222172
2022-12-11T01:04:32.267Z,-4.722222222222172
2022-12-11T01:05:32.241Z,-4.722222222222172
2022-12-11T01:06:32.278Z,-4.722222222222172
2022-12-11T01:07:32.313Z,-4.722222222222172
2022-12-11T01:08:38.125Z,-4.722222222222172
2022-12-11T01:09:32.243Z,-4.722222222222172
2022-12-11T01:10:32.314Z,-4.722222222222172
2022-12-11T01:11:32.398Z,-4.722222222222172
2022-12-11T01:12:32.265Z,-4.611111111111086
2022-12-11T01:13:32.238Z,-4.611111111111086
2022-12-11T01:14:32.244Z,-4.611111111111086
2022-12-11T01:15:32.278Z,-4.611111111111086
2022-12-11T01:16:32.303Z,-4.611111111111086
2022-12-11T01:17:32.247Z,-4.611111111111086
2022-12-11T01:18:32.634Z,-4.611111111111086
2022-12-11T01:19:32.271Z,-4.611111111111086
2022-12-11T01:20:32.282Z,-4.722222222222172
2022-12-11T01:21:32.270Z,-4.722222222222172
2022-12-11T01:22:32.267Z,-4.7777777777777715
2022-12-11T01:23:32.305Z,-4.7777777777777715
2022-12-11T01:24:32.252Z,-4.7777777777777715
2022-12-11T01:25:32.245Z,-4.7777777777777715
2022-12-11T01:26:32.223Z,-4.7777777777777715
2022-12-11T01:27:32.334Z,-4.7777777777777715
2022-12-11T01:28:32.384Z,-4.7777777777777715
2022-12-11T01:29:32.272Z,-4.7777777777777715
2022-12-11T01:30:32.347Z,-4.7777777777777715
2022-12-11T01:31:32.292Z,-4.7777777777777715
2022-12-11T01:32:32.234Z,-4.7777777777777715
2022-12-11T01:33:32.291Z,-4.7777777777777715
2022-12-11T01:34:32.411Z,-4.722222222222172
2022-12-11T01:35:32.272Z,-4.722222222222172
2022-12-11T01:36:32.257Z,-4.722222222222172
2022-12-11T01:37:32.248Z,-4.722222222222172
2022-12-11T01:38:32.258Z,-4.722222222222172
2022-12-11T01:39:32.298Z,-4.722222222222172
2022-12-11T01:40:32.350Z,-4.7777777777777715
2022-12-11T01:41:32.509Z,-4.7777777777777715
2022-12-11T01:42:32.386Z,-4.7777777777777715
2022-12-11T01:43:32.427Z,-4.888888888888857
2022-12-11T01:44:32.418Z,-4.888888888888857
2022-12-11T01:45:32.427Z,-4.888888888888857
2022-12-11T01:46:32.483Z,-4.888888888888857
2022-12-11T01:47:32.436Z,-4.888888888888857
2022-12-11T01:48:32.953Z,-4.888888888888857
2022-12-11T01:49:32.358Z,-4.888888888888857
2022-12-11T01:50:32.294Z,-4.888888888888857
2022-12-11T01:51:32.264Z,-4.888888888888857
2022-12-11T01:52:32.257Z,-4.888888888888857
2022-12-11T01:53:32.248Z,-4.888888888888857
2022-12-11T01:54:32.222Z,-4.888888888888857
2022-12-11T01:55:32.292Z,-4.888888888888857
2022-12-11T01:56:32.265Z,-4.888888888888857
2022-12-11T01:57:32.249Z,-4.888888888888857
2022-12-11T01:58:32.283Z,-4.999999999999943
2022-12-11T01:59:32.257Z,-4.999999999999943
2022-12-11T02:00:32.246Z,-4.999999999999943
2022-12-11T02:01:32.327Z,-4.999999999999943
2022-12-11T02:02:32.365Z,-4.999999999999943
2022-12-11T02:03:32.298Z,-4.999999999999943
2022-12-11T02:04:32.274Z,-4.999999999999943
2022-12-11T02:05:32.266Z,-4.999999999999943
2022-12-11T02:06:32.256Z,-4.999999999999943
2022-12-11T02:07:32.280Z,-4.999999999999943
2022-12-11T02:08:32.241Z,-4.999999999999943
2022-12-11T02:09:32.245Z,-4.999999999999943
2022-12-11T02:10:32.252Z,-5.111111111111086
2022-12-11T02:11:33.124Z,-5.111111111111086
2022-12-11T02:12:36.471Z,-5.222222222222172
2022-12-11T02:13:40.441Z,-5.222222222222172
2022-12-11T02:14:44.408Z,-5.222222222222172
2022-12-11T02:15:48.464Z,-5.277777777777715
2022-12-11T02:16:52.453Z,-5.277777777777715
2022-12-11T02:17:56.442Z,-5.277777777777715
2022-12-11T02:19:00.431Z,-5.277777777777715
2022-12-11T02:20:04.516Z,-5.277777777777715
2022-12-11T02:21:08.447Z,-5.277777777777715
2022-12-11T02:22:12.436Z,-5.277777777777715
2022-12-11T02:23:16.408Z,-5.277777777777715
2022-12-11T02:24:20.424Z,-5.277777777777715
2022-12-11T02:25:24.457Z,-5.277777777777715
2022-12-11T02:26:28.453Z,-5.277777777777715
2022-12-11T02:27:32.256Z,-5.277777777777715
2022-12-11T02:28:32.258Z,-5.277777777777715
2022-12-11T02:29:32.267Z,-5.277777777777715
2022-12-11T02:30:32.255Z,-5.277777777777715
2022-12-11T02:31:32.264Z,-5.277777777777715
2022-12-11T02:32:32.243Z,-5.277777777777715
2022-12-11T02:33:32.276Z,-5.277777777777715
2022-12-11T02:34:32.257Z,-5.277777777777715
2022-12-11T02:35:32.255Z,-5.277777777777715
2022-12-11T02:36:32.330Z,-5.277777777777715
2022-12-11T02:37:32.266Z,-5.277777777777715
2022-12-11T02:38:32.262Z,-5.222222222222172
2022-12-11T02:39:32.255Z,-5.222222222222172
2022-12-11T02:40:32.239Z,-5.222222222222172
2022-12-11T02:41:32.266Z,-5.222222222222172
2022-12-11T02:42:32.271Z,-5.222222222222172
2022-12-11T02:43:32.258Z,-5.222222222222172
2022-12-11T02:44:32.246Z,-5.222222222222172
2022-12-11T02:45:32.384Z,-5.222222222222172
2022-12-11T02:46:32.230Z,-5.222222222222172
2022-12-11T02:47:32.257Z,-5.222222222222172
2022-12-11T02:48:32.283Z,-5.222222222222172
2022-12-11T02:49:32.259Z,-5.222222222222172
2022-12-11T02:50:32.279Z,-5.222222222222172
2022-12-11T02:51:32.231Z,-5.222222222222172
2022-12-11T02:52:32.269Z,-5.222222222222172
2022-12-11T02:53:32.259Z,-5.222222222222172
2022-12-11T02:54:32.244Z,-5.222222222222172
2022-12-11T02:55:32.260Z,-5.222222222222172
2022-12-11T02:56:32.233Z,-5.222222222222172
2022-12-11T02:57:32.304Z,-5.111111111111086
2022-12-11T02:58:32.227Z,-5.111111111111086
2022-12-11T02:59:32.244Z,-5.111111111111086
2022-12-11T03:00:32.281Z,-5.111111111111086
2022-12-11T03:01:32.309Z,-5.111111111111086
2022-12-11T03:02:32.287Z,-5.111111111111086
2022-12-11T03:03:32.258Z,-5.111111111111086
2022-12-11T03:04:32.342Z,-5.111111111111086
2022-12-11T03:05:32.244Z,-5.222222222222172
2022-12-11T03:06:32.255Z,-5.277777777777715
2022-12-11T03:07:32.223Z,-5.277777777777715
2022-12-11T03:08:32.319Z,-5.277777777777715
2022-12-11T03:09:32.364Z,-5.277777777777715
2022-12-11T03:10:32.299Z,-5.277777777777715
2022-12-11T03:11:32.391Z,-5.277777777777715
2022-12-11T03:12:32.427Z,-5.277777777777715
2022-12-11T03:13:32.318Z,-5.277777777777715
2022-12-11T03:14:32.279Z,-5.277777777777715
2022-12-11T03:15:32.358Z,-5.277777777777715
2022-12-11T03:16:32.401Z,-5.277777777777715
2022-12-11T03:17:32.326Z,-5.277777777777715
2022-12-11T03:18:32.406Z,-5.277777777777715
2022-12-11T03:19:32.252Z,-5.277777777777715
2022-12-11T03:20:32.417Z,-5.277777777777715
2022-12-11T03:21:32.301Z,-5.277777777777715
2022-12-11T03:22:32.507Z,-5.388888888888857
2022-12-11T03:23:32.300Z,-5.388888888888857
2022-12-11T03:24:32.339Z,-5.388888888888857
2022-12-11T03:25:32.392Z,-5.388888888888857
2022-12-11T03:26:32.358Z,-5.388888888888857
2022-12-11T03:27:32.367Z,-5.388888888888857
2022-12-11T03:28:32.288Z,-5.388888888888857
2022-12-11T03:29:32.351Z,-5.388888888888857
2022-12-11T03:30:32.348Z,-5.388888888888857
2022-12-11T03:31:32.239Z,-5.388888888888857
2022-12-11T03:32:32.556Z,-5.499999999999943
2022-12-11T03:33:32.385Z,-5.499999999999943
2022-12-11T03:34:32.282Z,-5.499999999999943
2022-12-11T03:35:32.222Z,-5.499999999999943
2022-12-11T03:36:32.294Z,-5.499999999999943
2022-12-11T03:37:32.268Z,-5.499999999999943
2022-12-11T03:38:32.263Z,-5.499999999999943
2022-12-11T03:39:32.235Z,-5.499999999999943
2022-12-11T03:40:32.374Z,-5.499999999999943
2022-12-11T03:41:32.305Z,-5.499999999999943
2022-12-11T03:42:32.382Z,-5.499999999999943
2022-12-11T03:43:32.335Z,-5.499999999999943
2022-12-11T03:44:32.249Z,-5.499999999999943
2022-12-11T03:45:32.274Z,-5.611111111111086
2022-12-11T03:46:32.349Z,-5.611111111111086
2022-12-11T03:47:32.236Z,-5.499999999999943
2022-12-11T03:48:32.241Z,-5.499999999999943
2022-12-11T03:49:32.240Z,-5.499999999999943
2022-12-11T03:50:32.234Z,-5.499999999999943
2022-12-11T03:51:32.219Z,-5.499999999999943
2022-12-11T03:52:32.249Z,-5.499999999999943
2022-12-11T03:53:32.257Z,-5.388888888888857
2022-12-11T03:54:32.264Z,-5.388888888888857
2022-12-11T03:55:32.254Z,-5.388888888888857
2022-12-11T03:56:32.226Z,-5.388888888888857
2022-12-11T03:57:32.231Z,-5.388888888888857
2022-12-11T03:58:32.363Z,-5.388888888888857
2022-12-11T03:59:32.259Z,-5.388888888888857
2022-12-11T04:00:32.244Z,-5.277777777777715
2022-12-11T04:01:32.299Z,-5.277777777777715
2022-12-11T04:02:32.259Z,-5.277777777777715
2022-12-11T04:03:32.247Z,-5.277777777777715
2022-12-11T04:04:32.261Z,-5.277777777777715
2022-12-11T04:05:32.278Z,-5.277777777777715
2022-12-11T04:06:32.260Z,-5.222222222222172
2022-12-11T04:07:32.263Z,-5.222222222222172
2022-12-11T04:08:32.224Z,-5.222222222222172
2022-12-11T04:09:32.275Z,-5.222222222222172
2022-12-11T04:10:32.298Z,-5.222222222222172
2022-12-11T04:11:32.246Z,-5.222222222222172
2022-12-11T04:12:32.254Z,-5.222222222222172
2022-12-11T04:13:32.274Z,-5.222222222222172
2022-12-11T04:14:32.257Z,-5.277777777777715
2022-12-11T04:15:32.275Z,-5.277777777777715
2022-12-11T04:16:32.286Z,-5.277777777777715
2022-12-11T04:17:32.225Z,-5.388888888888857
2022-12-11T04:18:32.465Z,-5.388888888888857
2022-12-11T04:19:32.245Z,-5.388888888888857
2022-12-11T04:20:32.225Z,-5.388888888888857
2022-12-11T04:21:37.832Z,-5.388888888888857
2022-12-11T04:22:32.246Z,-5.388888888888857
2022-12-11T04:23:32.223Z,-5.388888888888857
2022-12-11T04:24:32.218Z,-5.388888888888857
2022-12-11T04:25:32.241Z,-5.388888888888857
2022-12-11T04:26:32.258Z,-5.388888888888857
2022-12-11T04:27:32.256Z,-5.388888888888857
2022-12-11T04:28:32.249Z,-5.388888888888857
2022-12-11T04:29:32.234Z,-5.388888888888857
2022-12-11T04:30:34.299Z,-5.388888888888857
2022-12-11T04:31:32.263Z,-5.388888888888857
2022-12-11T04:32:32.230Z,-5.388888888888857
2022-12-11T04:33:32.270Z,-5.277777777777715
2022-12-11T04:34:32.239Z,-5.277777777777715
2022-12-11T04:35:32.337Z,-5.277777777777715
2022-12-11T04:36:32.226Z,-5.277777777777715
2022-12-11T04:37:32.274Z,-5.277777777777715
2022-12-11T04:38:32.265Z,-5.277777777777715
2022-12-11T04:39:32.256Z,-5.277777777777715
2022-12-11T04:40:32.217Z,-5.277777777777715
2022-12-11T04:41:32.350Z,-5.277777777777715
2022-12-11T04:42:32.249Z,-5.277777777777715
2022-12-11T04:43:32.202Z,-5.277777777777715
2022-12-11T04:44:32.277Z,-5.277777777777715
2022-12-11T04:45:32.233Z,-5.277777777777715
2022-12-11T04:46:32.317Z,-5.277777777777715
2022-12-11T04:47:32.231Z,-5.277777777777715
2022-12-11T04:48:32.261Z,-5.277777777777715
2022-12-11T04:49:32.255Z,-5.277777777777715
2022-12-11T04:50:32.249Z,-5.277777777777715
2022-12-11T04:51:32.207Z,-5.277777777777715
2022-12-11T04:52:32.242Z,-5.277777777777715
2022-12-11T04:53:32.275Z,-5.277777777777715
2022-12-11T04:54:32.256Z,-5.277777777777715
2022-12-11T04:55:32.192Z,-5.388888888888857
2022-12-11T04:56:32.241Z,-5.388888888888857
2022-12-11T04:57:32.246Z,-5.388888888888857
2022-12-11T04:58:32.266Z,-5.388888888888857
2022-12-11T04:59:32.231Z,-5.388888888888857
2022-12-11T05:00:32.211Z,-5.388888888888857
2022-12-11T05:01:32.290Z,-5.388888888888857
2022-12-11T05:02:32.313Z,-5.388888888888857
2022-12-11T05:03:32.250Z,-5.388888888888857
2022-12-11T05:04:32.207Z,-5.388888888888857
2022-12-11T05:05:32.270Z,-5.388888888888857
2022-12-11T05:06:32.262Z,-5.388888888888857
2022-12-11T05:07:32.215Z,-5.388888888888857
2022-12-11T05:08:32.234Z,-5.388888888888857
2022-12-11T05:09:32.256Z,-5.388888888888857
2022-12-11T05:10:32.249Z,-5.388888888888857
2022-12-11T05:11:32.182Z,-5.499999999999943
2022-12-11T05:12:32.248Z,-5.388888888888857
2022-12-11T05:13:32.232Z,-5.388888888888857
2022-12-11T05:14:32.238Z,-5.388888888888857
2022-12-11T05:15:32.763Z,-5.388888888888857
2022-12-11T05:16:32.224Z,-5.499999999999943
2022-12-11T05:17:32.285Z,-5.499999999999943
2022-12-11T05:18:32.223Z,-5.499999999999943
2022-12-11T05:19:32.287Z,-5.499999999999943
2022-12-11T05:20:32.239Z,-5.499999999999943
2022-12-11T05:21:35.226Z,-5.499999999999943
2022-12-11T05:22:32.245Z,-5.499999999999943
2022-12-11T05:23:32.285Z,-5.388888888888857
2022-12-11T05:24:32.248Z,-5.388888888888857
2022-12-11T05:25:32.237Z,-5.388888888888857
2022-12-11T05:26:32.251Z,-5.388888888888857
2022-12-11T05:27:32.214Z,-5.388888888888857
2022-12-11T05:28:32.214Z,-5.388888888888857
2022-12-11T05:29:32.243Z,-5.277777777777715
2022-12-11T05:30:32.258Z,-5.277777777777715
2022-12-11T05:31:32.289Z,-5.277777777777715
2022-12-11T05:32:32.226Z,-5.388888888888857
2022-12-11T05:33:32.251Z,-5.388888888888857
2022-12-11T05:34:32.229Z,-5.388888888888857
2022-12-11T05:35:32.229Z,-5.277777777777715
2022-12-11T05:36:32.226Z,-5.277777777777715
2022-12-11T05:37:32.228Z,-5.277777777777715
2022-12-11T05:38:32.315Z,-5.277777777777715
2022-12-11T05:39:32.218Z,-5.277777777777715
2022-12-11T05:40:32.232Z,-5.277777777777715
2022-12-11T05:41:32.236Z,-5.277777777777715
2022-12-11T05:42:32.245Z,-5.277777777777715
2022-12-11T05:43:32.223Z,-5.277777777777715
2022-12-11T05:44:32.232Z,-5.277777777777715
2022-12-11T05:45:32.357Z,-5.277777777777715
2022-12-11T05:46:32.312Z,-5.277777777777715
2022-12-11T05:47:32.224Z,-5.277777777777715
2022-12-11T05:48:32.356Z,-5.277777777777715
2022-12-11T05:49:32.233Z,-5.277777777777715
2022-12-11T05:50:32.258Z,-5.277777777777715
2022-12-11T05:51:32.199Z,-5.388888888888857
2022-12-11T05:52:32.227Z,-5.388888888888857
2022-12-11T05:53:32.219Z,-5.388888888888857
2022-12-11T05:54:32.288Z,-5.388888888888857
2022-12-11T05:55:32.222Z,-5.388888888888857
2022-12-11T05:56:32.236Z,-5.388888888888857
2022-12-11T05:57:32.241Z,-5.388888888888857
2022-12-11T05:58:32.233Z,-5.388888888888857
2022-12-11T05:59:32.224Z,-5.388888888888857
2022-12-11T06:00:35.844Z,-5.388888888888857
2022-12-11T06:01:32.244Z,-5.388888888888857
2022-12-11T06:02:32.396Z,-5.388888888888857
2022-12-11T06:03:32.203Z,-5.388888888888857
2022-12-11T06:04:32.239Z,-5.388888888888857
2022-12-11T06:05:32.232Z,-5.388888888888857
2022-12-11T06:06:32.242Z,-5.388888888888857
2022-12-11T06:07:32.234Z,-5.499999999999943
2022-12-11T06:08:32.256Z,-5.499999999999943
2022-12-11T06:09:32.272Z,-5.499999999999943
2022-12-11T06:10:32.252Z,-5.388888888888857
2022-12-11T06:11:32.230Z,-5.388888888888857
2022-12-11T06:12:32.228Z,-5.388888888888857
2022-12-11T06:13:32.388Z,-5.388888888888857
2022-12-11T06:14:32.300Z,-5.388888888888857
2022-12-11T06:15:32.230Z,-5.388888888888857
2022-12-11T06:16:32.308Z,-5.388888888888857
2022-12-11T06:17:32.205Z,-5.388888888888857
2022-12-11T06:18:32.301Z,-5.388888888888857
2022-12-11T06:19:36.784Z,-5.388888888888857
2022-12-11T06:20:32.195Z,-5.388888888888857
2022-12-11T06:21:32.214Z,-5.388888888888857
2022-12-11T06:22:32.243Z,-5.388888888888857
2022-12-11T06:23:32.260Z,-5.388888888888857
2022-12-11T06:24:32.226Z,-5.388888888888857
2022-12-11T06:25:32.257Z,-5.388888888888857
2022-12-11T06:26:32.309Z,-5.388888888888857
2022-12-11T06:27:32.241Z,-5.277777777777715
2022-12-11T06:28:32.300Z,-5.277777777777715
2022-12-11T06:29:32.217Z,-5.277777777777715
2022-12-11T06:30:38.273Z,-5.277777777777715
2022-12-11T06:31:32.241Z,-5.277777777777715
2022-12-11T06:32:32.381Z,-5.277777777777715
2022-12-11T06:33:32.276Z,-5.277777777777715
2022-12-11T06:34:32.249Z,-5.277777777777715
2022-12-11T06:35:35.039Z,-5.277777777777715
2022-12-11T06:36:32.203Z,-5.277777777777715
2022-12-11T06:37:32.467Z,-5.277777777777715
2022-12-11T06:38:32.251Z,-5.277777777777715
2022-12-11T06:39:32.247Z,-5.277777777777715
2022-12-11T06:40:32.213Z,-5.277777777777715
2022-12-11T06:41:32.216Z,-5.277777777777715
2022-12-11T06:42:32.288Z,-5.222222222222172
2022-12-11T06:43:32.270Z,-5.222222222222172
2022-12-11T06:44:32.288Z,-5.222222222222172
2022-12-11T06:45:32.251Z,-5.222222222222172
2022-12-11T06:46:32.300Z,-5.222222222222172
2022-12-11T06:47:32.258Z,-5.222222222222172
2022-12-11T06:48:32.562Z,-5.222222222222172
2022-12-11T06:49:32.181Z,-5.222222222222172
2022-12-11T06:50:32.366Z,-5.222222222222172
2022-12-11T06:51:32.250Z,-5.222222222222172
2022-12-11T06:52:32.228Z,-5.222222222222172
2022-12-11T06:53:32.237Z,-5.222222222222172
2022-12-11T06:54:32.240Z,-5.277777777777715
2022-12-11T06:55:32.248Z,-5.277777777777715
2022-12-11T06:56:32.234Z,-5.277777777777715
2022-12-11T06:57:32.240Z,-5.277777777777715
2022-12-11T06:58:32.236Z,-5.277777777777715
2022-12-11T06:59:32.233Z,-5.277777777777715
2022-12-11T07:00:33.653Z,-5.277777777777715
2022-12-11T07:01:40.688Z,-5.277777777777715
2022-12-11T07:02:44.604Z,-5.277777777777715
2022-12-11T07:03:48.555Z,-5.277777777777715
2022-12-11T07:04:55.279Z,-5.222222222222172
2022-12-11T07:05:56.525Z,-5.222222222222172
2022-12-11T07:07:00.638Z,-5.222222222222172
2022-12-11T07:08:04.608Z,-5.222222222222172
2022-12-11T07:09:08.562Z,-5.222222222222172
2022-12-11T07:10:12.553Z,-5.222222222222172
2022-12-11T07:11:16.597Z,-5.222222222222172
2022-12-11T07:12:20.552Z,-5.222222222222172
2022-12-11T07:13:24.543Z,-5.222222222222172
2022-12-11T07:14:28.529Z,-5.222222222222172
2022-12-11T07:15:34.380Z,-5.222222222222172
2022-12-11T07:16:32.289Z,-5.222222222222172
2022-12-11T07:17:32.219Z,-5.222222222222172
2022-12-11T07:18:32.191Z,-5.222222222222172
2022-12-11T07:19:32.235Z,-5.222222222222172
2022-12-11T07:20:32.226Z,-5.222222222222172
2022-12-11T07:21:32.222Z,-5.222222222222172
2022-12-11T07:22:32.216Z,-5.222222222222172
2022-12-11T07:23:32.238Z,-5.111111111111086
2022-12-11T07:24:32.221Z,-5.111111111111086
2022-12-11T07:25:32.217Z,-5.111111111111086
2022-12-11T07:26:32.258Z,-5.111111111111086
2022-12-11T07:27:32.245Z,-5.111111111111086
2022-12-11T07:28:32.211Z,-5.111111111111086
2022-12-11T07:29:32.216Z,-5.111111111111086
2022-12-11T07:30:32.231Z,-5.111111111111086
2022-12-11T07:31:32.281Z,-5.111111111111086
2022-12-11T07:32:32.348Z,-5.111111111111086
2022-12-11T07:33:32.230Z,-5.111111111111086
2022-12-11T07:34:32.223Z,-5.111111111111086
2022-12-11T07:35:32.260Z,-5.222222222222172
2022-12-11T07:36:32.230Z,-5.222222222222172
2022-12-11T07:37:32.228Z,-5.222222222222172
2022-12-11T07:38:32.203Z,-5.222222222222172
2022-12-11T07:39:32.331Z,-5.222222222222172
2022-12-11T07:40:32.199Z,-5.222222222222172
2022-12-11T07:41:32.296Z,-5.222222222222172
2022-12-11T07:42:32.217Z,-5.222222222222172
2022-12-11T07:43:32.372Z,-5.222222222222172
2022-12-11T07:44:32.207Z,-5.222222222222172
2022-12-11T07:45:32.219Z,-5.222222222222172
2022-12-11T07:46:32.349Z,-5.222222222222172
2022-12-11T07:47:32.226Z,-5.222222222222172
2022-12-11T07:48:32.195Z,-5.111111111111086
2022-12-11T07:49:32.241Z,-5.222222222222172
2022-12-11T07:50:35.187Z,-5.222222222222172
2022-12-11T07:51:32.262Z,-5.222222222222172
2022-12-11T07:52:32.189Z,-5.111111111111086
2022-12-11T07:53:32.236Z,-5.111111111111086
2022-12-11T07:54:32.250Z,-5.111111111111086
2022-12-11T07:55:32.206Z,-5.111111111111086
2022-12-11T07:56:32.216Z,-5.111111111111086
2022-12-11T07:57:32.240Z,-5.111111111111086
2022-12-11T07:58:32.245Z,-5.111111111111086
2022-12-11T07:59:32.291Z,-5.111111111111086
2022-12-11T08:00:32.203Z,-5.111111111111086
2022-12-11T08:01:32.269Z,-5.111111111111086
2022-12-11T08:02:37.023Z,-5.111111111111086
2022-12-11T08:03:32.258Z,-5.111111111111086
2022-12-11T08:04:32.196Z,-5.111111111111086
2022-12-11T08:05:32.202Z,-5.111111111111086
2022-12-11T08:06:32.207Z,-5.111111111111086
2022-12-11T08:07:32.207Z,-5.111111111111086
2022-12-11T08:08:32.224Z,-5.111111111111086
2022-12-11T08:09:32.295Z,-5.111111111111086
2022-12-11T08:10:32.220Z,-5.111111111111086
2022-12-11T08:11:32.255Z,-5.111111111111086
2022-12-11T08:12:32.185Z,-5.111111111111086
2022-12-11T08:13:32.231Z,-5.111111111111086
2022-12-11T08:14:32.288Z,-5.111111111111086
2022-12-11T08:15:32.598Z,-5.111111111111086
2022-12-11T08:16:32.224Z,-5.111111111111086
2022-12-11T08:17:36.646Z,-5.111111111111086
2022-12-11T08:18:32.197Z,-5.111111111111086
2022-12-11T08:19:32.226Z,-5.111111111111086
2022-12-11T08:20:32.225Z,-5.111111111111086
2022-12-11T08:21:32.189Z,-5.111111111111086
2022-12-11T08:22:32.204Z,-5.111111111111086
2022-12-11T08:23:32.211Z,-4.999999999999943
2022-12-11T08:24:32.235Z,-4.999999999999943
2022-12-11T08:25:32.190Z,-4.999999999999943
2022-12-11T08:26:32.230Z,-4.999999999999943
2022-12-11T08:27:32.243Z,-4.999999999999943
2022-12-11T08:28:32.307Z,-4.999999999999943
2022-12-11T08:29:32.202Z,-4.999999999999943
2022-12-11T08:30:32.262Z,-4.999999999999943
2022-12-11T08:31:32.221Z,-4.999999999999943
2022-12-11T08:32:32.241Z,-4.999999999999943
2022-12-11T08:33:32.240Z,-4.999999999999943
2022-12-11T08:34:32.209Z,-4.999999999999943
2022-12-11T08:35:32.236Z,-4.999999999999943
2022-12-11T08:36:32.216Z,-4.999999999999943
2022-12-11T08:37:32.240Z,-4.999999999999943
2022-12-11T08:38:32.214Z,-4.888888888888857
2022-12-11T08:39:32.367Z,-4.888888888888857
2022-12-11T08:40:32.277Z,-4.888888888888857
2022-12-11T08:41:32.203Z,-4.999999999999943
2022-12-11T08:42:32.210Z,-4.999999999999943
2022-12-11T08:43:32.225Z,-4.888888888888857
2022-12-11T08:44:32.238Z,-4.999999999999943
2022-12-11T08:45:32.199Z,-4.999999999999943
2022-12-11T08:46:32.311Z,-4.999999999999943
2022-12-11T08:47:32.211Z,-4.999999999999943
2022-12-11T08:48:32.226Z,-4.999999999999943
2022-12-11T08:49:34.570Z,-4.999999999999943
2022-12-11T08:50:32.214Z,-4.999999999999943
2022-12-11T08:51:32.221Z,-4.999999999999943
2022-12-11T08:52:32.242Z,-4.888888888888857
2022-12-11T08:53:32.220Z,-4.888888888888857
2022-12-11T08:54:32.273Z,-4.7777777777777715
2022-12-11T08:55:32.222Z,-4.7777777777777715
2022-12-11T08:56:32.222Z,-4.7777777777777715
2022-12-11T08:57:32.203Z,-4.7777777777777715
2022-12-11T08:58:32.212Z,-4.7777777777777715
2022-12-11T08:59:32.378Z,-4.7777777777777715
2022-12-11T09:00:32.241Z,-4.7777777777777715
2022-12-11T09:01:32.288Z,-4.7777777777777715
2022-12-11T09:02:32.308Z,-4.7777777777777715
2022-12-11T09:03:32.214Z,-4.7777777777777715
2022-12-11T09:04:32.223Z,-4.7777777777777715
2022-12-11T09:05:32.211Z,-4.7777777777777715